createdAt,value
2019-01-19T00:00:19.104Z,55.29
2019-01-19T00:00:50.729Z,55.43
2019-01-19T00:01:22.359Z,55.42
2019-01-19T00:01:53.984Z,55.56
2019-01-19T00:02:25.594Z,55.42
2019-01-19T00:02:57.257Z,55.53
2019-01-19T00:03:28.884Z,55.66
2019-01-19T00:04:00.508Z,55.69
2019-01-19T00:04:32.129Z,55.69
2019-01-19T00:05:10.229Z,55.71
2019-01-19T00:05:35.428Z,55.71
2019-01-19T00:06:07.039Z,55.82
2019-01-19T00:06:38.664Z,55.88
2019-01-19T00:07:10.275Z,55.83
2019-01-19T00:07:41.885Z,56.00
2019-01-19T00:08:13.534Z,56.04
2019-01-19T00:08:45.130Z,56.16
2019-01-19T00:09:16.724Z,56.08
2019-01-19T00:09:48.345Z,56.15
2019-01-19T00:10:19.965Z,56.20
2019-01-19T00:10:51.593Z,56.08
2019-01-19T00:11:23.208Z,56.20
2019-01-19T00:11:54.813Z,56.27
2019-01-19T00:12:26.435Z,56.31
2019-01-19T00:12:58.056Z,56.35
2019-01-19T00:13:29.710Z,56.39
2019-01-19T00:14:01.315Z,56.42
2019-01-19T00:14:32.935Z,56.41
2019-01-19T00:15:04.527Z,56.37
2019-01-19T00:15:36.142Z,56.39
2019-01-19T00:16:07.768Z,56.54
2019-01-19T00:16:39.400Z,56.54
2019-01-19T00:17:11.022Z,56.55
2019-01-19T00:17:42.652Z,56.54
2019-01-19T00:18:14.261Z,56.65
2019-01-19T00:18:45.903Z,56.65
2019-01-19T00:19:17.511Z,56.61
2019-01-19T00:19:49.178Z,56.58
2019-01-19T00:20:20.804Z,56.61
2019-01-19T00:20:52.413Z,56.60
2019-01-19T00:21:24.040Z,56.67
2019-01-19T00:21:55.682Z,56.65
2019-01-19T00:22:27.302Z,56.69
2019-01-19T00:22:58.938Z,56.81
2019-01-19T00:23:30.543Z,56.82
2019-01-19T00:24:02.149Z,56.77
2019-01-19T00:24:33.766Z,56.88
2019-01-19T00:25:05.419Z,56.90
2019-01-19T00:25:37.044Z,56.90
2019-01-19T00:26:08.677Z,56.75
2019-01-19T00:26:40.284Z,56.71
2019-01-19T00:27:11.912Z,56.79
2019-01-19T00:27:43.533Z,56.82
2019-01-19T00:28:15.143Z,56.86
2019-01-19T00:28:46.764Z,56.76
2019-01-19T00:29:18.385Z,56.73
2019-01-19T00:29:49.996Z,56.87
2019-01-19T00:30:21.650Z,56.71
2019-01-19T00:30:53.259Z,56.52
2019-01-19T00:31:24.900Z,56.54
2019-01-19T00:31:56.521Z,56.52
2019-01-19T00:32:28.123Z,56.43
2019-01-19T00:32:59.738Z,56.42
2019-01-19T00:33:31.362Z,56.35
2019-01-19T00:34:02.992Z,56.17
2019-01-19T00:34:34.623Z,56.48
2019-01-19T00:35:06.260Z,56.18
2019-01-19T00:35:37.872Z,56.06
2019-01-19T00:36:09.483Z,56.03
2019-01-19T00:36:41.148Z,55.95
2019-01-19T00:37:12.744Z,55.80
2019-01-19T00:37:44.365Z,55.76
2019-01-19T00:38:15.994Z,55.58
2019-01-19T00:38:47.587Z,55.53
2019-01-19T00:39:19.202Z,55.43
2019-01-19T00:39:50.824Z,55.52
2019-01-19T00:40:22.443Z,55.46
2019-01-19T00:40:54.066Z,55.47
2019-01-19T00:41:25.688Z,55.34
2019-01-19T00:41:57.356Z,55.28
2019-01-19T00:42:28.970Z,55.29
2019-01-19T00:43:00.585Z,55.14
2019-01-19T00:43:32.207Z,55.11
2019-01-19T00:44:03.814Z,54.98
2019-01-19T00:44:35.426Z,55.01
2019-01-19T00:45:07.038Z,55.23
2019-01-19T00:45:38.645Z,55.19
2019-01-19T00:46:10.266Z,54.99
2019-01-19T00:46:41.874Z,55.09
2019-01-19T00:47:13.535Z,55.03
2019-01-19T00:47:45.159Z,55.11
2019-01-19T00:48:16.776Z,55.30
2019-01-19T00:48:48.625Z,55.09
2019-01-19T00:49:20.224Z,55.27
2019-01-19T00:49:51.838Z,55.12
2019-01-19T00:50:23.470Z,54.94
2019-01-19T00:50:55.098Z,55.05
2019-01-19T00:51:26.706Z,55.09
2019-01-19T00:51:58.303Z,54.98
2019-01-19T00:52:29.943Z,54.96
2019-01-19T00:53:01.561Z,54.96
2019-01-19T00:53:33.189Z,54.95
2019-01-19T00:54:04.842Z,55.07
2019-01-19T00:54:36.468Z,55.00
2019-01-19T00:55:08.089Z,54.97
2019-01-19T00:55:39.716Z,55.73
2019-01-19T00:56:11.312Z,55.64
2019-01-19T00:56:42.922Z,55.60
2019-01-19T00:57:14.537Z,55.81
2019-01-19T00:57:46.200Z,55.67
2019-01-19T00:58:17.812Z,55.73
2019-01-19T00:58:49.428Z,55.82
2019-01-19T00:59:21.056Z,55.65
2019-01-19T00:59:52.689Z,55.61
2019-01-19T01:00:24.298Z,55.67
2019-01-19T01:00:55.919Z,55.67
2019-01-19T01:01:27.542Z,55.75
2019-01-19T01:01:59.164Z,55.75
2019-01-19T01:02:30.780Z,55.79
2019-01-19T01:03:02.464Z,55.79
2019-01-19T01:03:34.071Z,55.72
2019-01-19T01:04:05.679Z,55.89
2019-01-19T01:04:37.289Z,55.91
2019-01-19T01:05:08.898Z,55.91
2019-01-19T01:05:40.515Z,56.00
2019-01-19T01:06:12.145Z,55.97
2019-01-19T01:06:43.773Z,55.98
2019-01-19T01:07:15.425Z,56.04
2019-01-19T01:07:47.062Z,56.42
2019-01-19T01:08:18.732Z,56.61
2019-01-19T01:08:50.365Z,56.53
2019-01-19T01:09:21.996Z,56.78
2019-01-19T01:09:53.641Z,56.71
2019-01-19T01:10:25.272Z,56.88
2019-01-19T01:10:56.913Z,56.88
2019-01-19T01:11:28.540Z,57.11
2019-01-19T01:12:00.162Z,57.07
2019-01-19T01:12:31.823Z,57.18
2019-01-19T01:13:03.481Z,57.05
2019-01-19T01:13:35.143Z,57.19
2019-01-19T01:14:06.758Z,57.29
2019-01-19T01:14:38.390Z,57.22
2019-01-19T01:15:10.010Z,57.25
2019-01-19T01:15:41.628Z,57.29
2019-01-19T01:16:13.250Z,57.36
2019-01-19T01:16:44.866Z,57.43
2019-01-19T01:17:16.474Z,57.45
2019-01-19T01:17:48.099Z,57.54
2019-01-19T01:18:19.726Z,57.55
2019-01-19T01:18:51.371Z,57.49
2019-01-19T01:19:23.009Z,57.45
2019-01-19T01:19:54.647Z,57.60
2019-01-19T01:20:26.275Z,57.70
2019-01-19T01:20:57.901Z,57.79
2019-01-19T01:21:29.519Z,57.73
2019-01-19T01:22:01.142Z,57.80
2019-01-19T01:22:32.768Z,57.85
2019-01-19T01:23:04.409Z,57.87
2019-01-19T01:23:36.041Z,57.89
2019-01-19T01:24:07.674Z,57.97
2019-01-19T01:24:39.305Z,58.01
2019-01-19T01:25:10.929Z,58.10
2019-01-19T01:25:42.562Z,58.18
2019-01-19T01:26:14.193Z,58.30
2019-01-19T01:26:45.837Z,58.30
2019-01-19T01:27:17.499Z,58.28
2019-01-19T01:27:49.115Z,58.39
2019-01-19T01:28:20.779Z,58.34
2019-01-19T01:28:52.411Z,58.47
2019-01-19T01:29:24.024Z,58.45
2019-01-19T01:29:55.647Z,58.45
2019-01-19T01:30:27.261Z,58.48
2019-01-19T01:30:58.906Z,58.58
2019-01-19T01:31:30.533Z,58.65
2019-01-19T01:32:02.390Z,58.72
2019-01-19T01:32:34.065Z,58.74
2019-01-19T01:33:05.690Z,58.80
2019-01-19T01:33:37.339Z,58.76
2019-01-19T01:34:08.959Z,58.80
2019-01-19T01:34:40.599Z,58.88
2019-01-19T01:35:12.228Z,58.93
2019-01-19T01:35:43.853Z,58.93
2019-01-19T01:36:15.476Z,58.89
2019-01-19T01:36:47.096Z,58.97
2019-01-19T01:37:18.745Z,59.03
2019-01-19T01:37:50.356Z,59.12
2019-01-19T01:38:21.990Z,59.03
2019-01-19T01:38:53.615Z,59.13
2019-01-19T01:39:25.233Z,59.15
2019-01-19T01:39:56.851Z,59.08
2019-01-19T01:40:28.457Z,59.13
2019-01-19T01:41:00.137Z,59.21
2019-01-19T01:41:31.771Z,59.12
2019-01-19T01:42:03.378Z,59.16
2019-01-19T01:42:34.996Z,59.15
2019-01-19T01:43:06.665Z,59.15
2019-01-19T01:43:38.303Z,59.17
2019-01-19T01:44:09.923Z,59.14
2019-01-19T01:44:41.535Z,59.11
2019-01-19T01:45:13.167Z,58.91
2019-01-19T01:45:44.803Z,58.94
2019-01-19T01:46:16.432Z,58.85
2019-01-19T01:46:48.050Z,58.83
2019-01-19T01:47:19.686Z,58.78
2019-01-19T01:47:51.324Z,58.68
2019-01-19T01:48:23.010Z,58.63
2019-01-19T01:48:54.640Z,58.57
2019-01-19T01:49:26.259Z,58.51
2019-01-19T01:49:57.860Z,58.40
2019-01-19T01:50:29.457Z,58.33
2019-01-19T01:51:01.095Z,58.37
2019-01-19T01:51:32.717Z,58.27
2019-01-19T01:52:04.332Z,58.32
2019-01-19T01:52:35.952Z,58.19
2019-01-19T01:53:07.566Z,58.06
2019-01-19T01:53:39.221Z,57.91
2019-01-19T01:54:10.835Z,57.82
2019-01-19T01:54:42.434Z,57.72
2019-01-19T01:55:14.046Z,57.66
2019-01-19T01:55:45.676Z,57.65
2019-01-19T01:56:17.306Z,57.43
2019-01-19T01:56:48.952Z,57.42
2019-01-19T01:57:20.565Z,57.26
2019-01-19T01:57:52.181Z,57.24
2019-01-19T01:58:23.798Z,57.21
2019-01-19T01:58:55.465Z,57.08
2019-01-19T01:59:27.077Z,56.99
2019-01-19T01:59:58.717Z,56.96
2019-01-19T02:00:30.317Z,56.92
2019-01-19T02:01:01.927Z,56.71
2019-01-19T02:01:33.563Z,56.83
2019-01-19T02:02:05.190Z,56.60
2019-01-19T02:02:36.816Z,56.70
2019-01-19T02:03:08.435Z,56.62
2019-01-19T02:03:40.056Z,56.59
2019-01-19T02:04:11.720Z,56.52
2019-01-19T02:04:43.585Z,56.45
2019-01-19T02:05:15.223Z,56.43
2019-01-19T02:05:46.827Z,56.54
2019-01-19T02:06:18.442Z,56.43
2019-01-19T02:06:50.071Z,56.47
2019-01-19T02:07:21.718Z,56.41
2019-01-19T02:07:53.341Z,56.34
2019-01-19T02:08:24.984Z,56.20
2019-01-19T02:08:56.607Z,56.27
2019-01-19T02:09:28.250Z,56.23
2019-01-19T02:09:59.872Z,56.27
2019-01-19T02:10:31.505Z,56.23
2019-01-19T02:11:03.105Z,56.22
2019-01-19T02:11:34.725Z,56.08
2019-01-19T02:12:06.343Z,55.91
2019-01-19T02:12:37.964Z,56.12
2019-01-19T02:13:09.574Z,56.12
2019-01-19T02:13:41.186Z,56.07
2019-01-19T02:14:12.789Z,56.04
2019-01-19T02:14:44.451Z,56.54
2019-01-19T02:15:16.122Z,56.36
2019-01-19T02:15:47.771Z,56.21
2019-01-19T02:16:19.397Z,56.21
2019-01-19T02:16:51.010Z,56.17
2019-01-19T02:17:22.640Z,56.21
2019-01-19T02:17:54.307Z,56.67
2019-01-19T02:18:25.932Z,56.52
2019-01-19T02:18:57.551Z,56.33
2019-01-19T02:19:29.167Z,56.38
2019-01-19T02:20:00.783Z,56.42
2019-01-19T02:20:32.417Z,56.46
2019-01-19T02:21:04.078Z,57.20
2019-01-19T02:21:35.694Z,57.30
2019-01-19T02:22:07.320Z,56.46
2019-01-19T02:22:38.929Z,55.89
2019-01-19T02:23:10.553Z,55.54
2019-01-19T02:23:42.162Z,55.14
2019-01-19T02:24:13.769Z,54.77
2019-01-19T02:24:45.377Z,53.83
2019-01-19T02:25:16.987Z,53.85
2019-01-19T02:25:48.580Z,53.69
2019-01-19T02:26:20.237Z,53.71
2019-01-19T02:26:51.846Z,53.64
2019-01-19T02:27:23.487Z,53.58
2019-01-19T02:27:55.093Z,53.65
2019-01-19T02:28:26.702Z,53.71
2019-01-19T02:28:58.318Z,53.71
2019-01-19T02:29:29.926Z,53.84
2019-01-19T02:30:01.536Z,53.92
2019-01-19T02:30:33.176Z,54.14
2019-01-19T02:31:04.810Z,54.07
2019-01-19T02:31:36.510Z,54.20
2019-01-19T02:32:08.122Z,54.29
2019-01-19T02:32:39.992Z,54.41
2019-01-19T02:33:11.652Z,54.44
2019-01-19T02:33:43.289Z,54.50
2019-01-19T02:34:14.904Z,54.54
2019-01-19T02:34:46.535Z,54.71
2019-01-19T02:35:18.140Z,54.67
2019-01-19T02:35:49.764Z,54.71
2019-01-19T02:36:21.640Z,54.90
2019-01-19T02:36:53.263Z,54.91
2019-01-19T02:37:24.896Z,55.02
2019-01-19T02:37:56.544Z,55.09
2019-01-19T02:38:28.417Z,55.06
2019-01-19T02:39:00.045Z,55.37
2019-01-19T02:39:31.672Z,55.23
2019-01-19T02:40:03.310Z,55.38
2019-01-19T02:40:35.170Z,55.67
2019-01-19T02:41:06.797Z,55.55
2019-01-19T02:41:38.660Z,55.72
2019-01-19T02:42:10.289Z,55.85
2019-01-19T02:42:41.911Z,55.69
2019-01-19T02:43:13.542Z,55.92
2019-01-19T02:43:45.176Z,56.05
2019-01-19T02:44:16.834Z,55.87
2019-01-19T02:44:48.469Z,56.04
2019-01-19T02:45:20.098Z,56.00
2019-01-19T02:45:51.723Z,56.06
2019-01-19T02:46:23.347Z,55.99
2019-01-19T02:46:54.962Z,56.11
2019-01-19T02:47:26.592Z,56.16
2019-01-19T02:47:58.262Z,56.23
2019-01-19T02:48:29.865Z,56.38
2019-01-19T02:49:01.798Z,56.35
2019-01-19T02:49:33.442Z,56.44
2019-01-19T02:50:05.062Z,56.58
2019-01-19T02:50:36.726Z,56.59
2019-01-19T02:51:08.347Z,56.48
2019-01-19T02:51:39.964Z,56.59
2019-01-19T02:52:11.577Z,56.55
2019-01-19T02:52:43.210Z,56.58
2019-01-19T02:53:14.822Z,56.68
2019-01-19T02:53:46.443Z,56.64
2019-01-19T02:54:18.098Z,56.63
2019-01-19T02:54:49.708Z,56.75
2019-01-19T02:55:21.380Z,56.75
2019-01-19T02:55:53.011Z,56.64
2019-01-19T02:56:24.634Z,56.73
2019-01-19T02:56:56.255Z,56.87
2019-01-19T02:57:27.863Z,56.87
2019-01-19T02:57:59.508Z,56.90
2019-01-19T02:58:31.179Z,57.03
2019-01-19T02:59:02.802Z,57.06
2019-01-19T02:59:34.419Z,57.23
2019-01-19T03:00:06.062Z,57.15
2019-01-19T03:00:37.725Z,57.36
2019-01-19T03:01:09.351Z,57.25
2019-01-19T03:01:41.577Z,57.26
2019-01-19T03:02:13.198Z,57.46
2019-01-19T03:02:44.848Z,57.46
2019-01-19T03:03:16.471Z,57.28
2019-01-19T03:03:48.101Z,57.49
2019-01-19T03:04:19.722Z,57.44
2019-01-19T03:04:51.333Z,57.33
2019-01-19T03:05:22.944Z,57.44
2019-01-19T03:05:56.183Z,57.74
2019-01-19T03:06:26.270Z,57.68
2019-01-19T03:06:57.878Z,57.62
2019-01-19T03:07:29.489Z,57.69
2019-01-19T03:08:01.107Z,57.67
2019-01-19T03:08:32.719Z,57.68
2019-01-19T03:09:04.330Z,57.59
2019-01-19T03:09:35.948Z,57.70
2019-01-19T03:10:07.562Z,57.71
2019-01-19T03:10:39.185Z,57.85
2019-01-19T03:11:10.861Z,57.86
2019-01-19T03:11:42.514Z,57.84
2019-01-19T03:12:14.119Z,57.83
2019-01-19T03:12:45.732Z,57.83
2019-01-19T03:13:17.354Z,57.64
2019-01-19T03:13:48.980Z,58.04
2019-01-19T03:14:20.586Z,58.04
2019-01-19T03:14:52.212Z,58.01
2019-01-19T03:15:23.840Z,57.95
2019-01-19T03:15:55.462Z,57.81
2019-01-19T03:16:27.064Z,58.04
2019-01-19T03:16:58.698Z,58.68
2019-01-19T03:17:30.316Z,58.39
2019-01-19T03:18:01.962Z,58.36
2019-01-19T03:18:33.584Z,58.30
2019-01-19T03:19:05.199Z,58.34
2019-01-19T03:19:36.810Z,58.24
2019-01-19T03:20:08.434Z,58.33
2019-01-19T03:20:40.050Z,58.10
2019-01-19T03:21:11.668Z,58.07
2019-01-19T03:21:43.264Z,57.94
2019-01-19T03:22:14.889Z,57.93
2019-01-19T03:22:46.516Z,57.93
2019-01-19T03:23:18.175Z,57.74
2019-01-19T03:23:49.795Z,57.82
2019-01-19T03:24:21.410Z,57.70
2019-01-19T03:24:53.022Z,57.74
2019-01-19T03:25:24.651Z,57.90
2019-01-19T03:25:56.266Z,57.71
2019-01-19T03:26:27.876Z,57.59
2019-01-19T03:26:59.496Z,57.53
2019-01-19T03:27:31.112Z,57.50
2019-01-19T03:28:02.718Z,57.48
2019-01-19T03:28:34.367Z,57.26
2019-01-19T03:29:05.986Z,57.32
2019-01-19T03:29:37.616Z,57.25
2019-01-19T03:30:09.250Z,57.28
2019-01-19T03:30:40.871Z,57.21
2019-01-19T03:31:12.493Z,57.26
2019-01-19T03:31:44.117Z,57.17
2019-01-19T03:32:15.738Z,57.18
2019-01-19T03:32:47.366Z,57.10
2019-01-19T04:20:59.503Z,61.62
2019-01-19T04:21:31.131Z,61.48
2019-01-19T04:22:02.722Z,61.36
2019-01-19T04:22:34.324Z,61.33
2019-01-19T04:23:05.927Z,61.13
2019-01-19T04:23:37.542Z,61.12
2019-01-19T04:24:09.131Z,61.10
2019-01-19T04:24:40.763Z,60.95
2019-01-19T04:25:12.361Z,60.88
2019-01-19T04:25:43.971Z,60.83
2019-01-19T04:26:15.577Z,60.70
2019-01-19T04:26:47.243Z,60.42
2019-01-19T04:27:18.836Z,60.27
2019-01-19T04:27:50.436Z,59.94
2019-01-19T04:28:22.045Z,59.65
2019-01-19T04:28:53.652Z,59.33
2019-01-19T04:29:25.263Z,59.38
2019-01-19T04:29:56.911Z,59.46
2019-01-19T04:30:28.526Z,59.19
2019-01-19T04:31:00.146Z,58.98
2019-01-19T04:31:31.755Z,58.91
2019-01-19T04:32:03.351Z,58.95
2019-01-19T04:32:34.957Z,58.78
2019-01-19T04:33:06.571Z,58.78
2019-01-19T04:33:38.188Z,58.79
2019-01-19T04:34:09.786Z,58.64
2019-01-19T04:34:41.369Z,58.25
2019-01-19T04:35:12.984Z,58.15
2019-01-19T04:35:44.574Z,58.04
2019-01-19T04:36:21.515Z,57.99
2019-01-19T04:36:47.844Z,57.58
2019-01-19T04:37:19.450Z,57.30
2019-01-19T04:37:51.064Z,57.24
2019-01-19T04:38:22.672Z,57.23
2019-01-19T04:38:54.275Z,57.29
2019-01-19T04:39:25.887Z,57.15
2019-01-19T04:39:57.557Z,56.79
2019-01-19T04:40:29.170Z,56.92
2019-01-19T04:41:00.752Z,56.88
2019-01-19T04:41:32.442Z,56.63
2019-01-19T04:42:04.044Z,56.51
2019-01-19T04:42:35.635Z,56.28
2019-01-19T04:43:07.255Z,56.20
2019-01-19T04:43:38.881Z,56.24
2019-01-19T04:44:10.492Z,56.06
2019-01-19T04:44:42.101Z,56.08
2019-01-19T04:45:13.756Z,56.02
2019-01-19T04:45:45.395Z,56.08
2019-01-19T04:46:17.008Z,55.91
2019-01-19T04:46:48.617Z,56.16
2019-01-19T04:47:20.214Z,55.89
2019-01-19T04:47:51.806Z,56.01
2019-01-19T04:48:23.482Z,55.87
2019-01-19T04:48:55.102Z,55.66
2019-01-19T04:49:26.713Z,55.83
2019-01-19T04:49:58.341Z,55.76
2019-01-19T04:50:29.967Z,55.63
2019-01-19T04:51:01.563Z,55.63
2019-01-19T04:51:33.161Z,55.63
2019-01-19T04:52:04.776Z,55.67
2019-01-19T04:52:36.370Z,55.64
2019-01-19T04:53:07.977Z,55.62
2019-01-19T04:53:39.598Z,55.52
2019-01-19T04:54:11.203Z,55.55
2019-01-19T04:54:42.836Z,55.50
2019-01-19T04:55:14.429Z,55.51
2019-01-19T04:55:46.020Z,55.77
2019-01-19T04:56:17.628Z,55.70
2019-01-19T04:56:49.225Z,55.88
2019-01-19T04:57:20.805Z,55.47
2019-01-19T04:57:52.398Z,55.59
2019-01-19T04:58:24.000Z,55.64
2019-01-19T04:58:55.612Z,55.78
2019-01-19T04:59:27.205Z,55.77
2019-01-19T04:59:58.826Z,55.97
2019-01-19T05:00:30.422Z,55.95
2019-01-19T05:01:02.021Z,55.85
2019-01-19T05:01:33.626Z,55.99
2019-01-19T05:02:05.224Z,56.17
2019-01-19T05:02:36.814Z,56.05
2019-01-19T05:03:08.420Z,56.05
2019-01-19T05:03:40.032Z,56.28
2019-01-19T05:04:11.636Z,56.13
2019-01-19T05:04:43.291Z,56.49
2019-01-19T05:05:14.886Z,56.99
2019-01-19T05:05:46.488Z,56.41
2019-01-19T05:06:18.095Z,56.56
2019-01-19T05:06:49.703Z,56.43
2019-01-19T05:07:21.306Z,56.56
2019-01-19T05:07:52.901Z,56.76
2019-01-19T05:08:24.494Z,57.07
2019-01-19T05:08:56.086Z,57.17
2019-01-19T05:09:27.678Z,56.80
2019-01-19T05:09:59.307Z,57.24
2019-01-19T05:10:30.898Z,56.64
2019-01-19T05:11:02.495Z,56.95
2019-01-19T05:11:34.104Z,57.26
2019-01-19T05:12:05.698Z,56.86
2019-01-19T05:12:37.300Z,56.87
2019-01-19T05:13:08.898Z,57.19
2019-01-19T05:13:40.480Z,56.91
2019-01-19T05:14:12.073Z,57.14
2019-01-19T05:14:43.672Z,57.01
2019-01-19T05:15:15.319Z,57.11
2019-01-19T05:15:46.923Z,56.85
2019-01-19T05:16:18.517Z,56.76
2019-01-19T05:16:50.124Z,57.10
2019-01-19T05:17:21.717Z,56.89
2019-01-19T05:17:53.328Z,56.78
2019-01-19T05:18:24.922Z,56.82
2019-01-19T05:18:56.505Z,56.84
2019-01-19T05:19:28.102Z,56.83
2019-01-19T05:19:59.712Z,56.88
2019-01-19T05:20:31.345Z,56.91
2019-01-19T05:21:02.939Z,56.99
2019-01-19T05:21:34.521Z,56.89
2019-01-19T05:22:06.117Z,56.93
2019-01-19T05:22:37.705Z,57.04
2019-01-19T05:23:10.815Z,57.00
2019-01-19T05:23:40.976Z,57.19
2019-01-19T05:24:12.570Z,57.13
2019-01-19T05:24:44.168Z,57.18
2019-01-19T05:25:15.761Z,57.15
2019-01-19T05:25:47.408Z,57.24
2019-01-19T05:26:19.020Z,57.32
2019-01-19T05:26:50.637Z,57.43
2019-01-19T05:27:22.235Z,57.44
2019-01-19T05:27:53.825Z,57.52
2019-01-19T05:28:25.429Z,57.59
2019-01-19T05:28:57.022Z,57.67
2019-01-19T05:29:28.627Z,57.65
2019-01-19T05:30:00.248Z,57.79
2019-01-19T05:30:31.892Z,57.90
2019-01-19T05:31:03.506Z,57.90
2019-01-19T05:31:35.107Z,57.99
2019-01-19T05:32:06.720Z,57.99
2019-01-19T05:32:38.319Z,58.06
2019-01-19T05:33:09.912Z,58.06
2019-01-19T05:33:41.500Z,58.14
2019-01-19T05:34:13.104Z,58.12
2019-01-19T05:34:44.701Z,58.15
2019-01-19T05:35:16.331Z,58.15
2019-01-19T05:35:47.955Z,58.11
2019-01-19T05:36:19.564Z,58.32
2019-01-19T05:36:51.157Z,58.30
2019-01-19T05:37:22.768Z,58.33
2019-01-19T05:37:54.404Z,58.27
2019-01-19T05:38:26.011Z,58.34
2019-01-19T05:38:57.610Z,58.39
2019-01-19T05:39:29.216Z,58.48
2019-01-19T05:40:00.840Z,58.53
2019-01-19T05:40:32.433Z,58.38
2019-01-19T05:41:04.026Z,58.49
2019-01-19T05:41:35.617Z,58.61
2019-01-19T05:42:07.214Z,58.60
2019-01-19T05:42:38.796Z,58.61
2019-01-19T05:43:10.376Z,58.58
2019-01-19T05:43:41.984Z,58.63
2019-01-19T05:44:13.587Z,58.62
2019-01-19T05:44:45.202Z,58.65
2019-01-19T05:45:16.820Z,58.74
2019-01-19T05:45:48.532Z,58.73
2019-01-19T05:46:21.449Z,58.74
2019-01-19T05:46:51.803Z,58.76
2019-01-19T05:47:23.415Z,58.79
2019-01-19T05:47:55.000Z,58.99
2019-01-19T05:48:26.584Z,58.90
2019-01-19T05:48:58.176Z,58.97
2019-01-19T05:49:29.765Z,58.99
2019-01-19T05:50:01.394Z,59.12
2019-01-19T05:50:32.997Z,59.34
2019-01-19T05:51:04.594Z,59.15
2019-01-19T05:51:36.201Z,59.20
2019-01-19T05:52:07.797Z,59.08
2019-01-19T05:52:39.400Z,59.29
2019-01-19T05:53:11.009Z,59.30
2019-01-19T05:53:42.608Z,59.24
2019-01-19T05:54:14.194Z,59.23
2019-01-19T05:54:45.786Z,59.17
2019-01-19T05:55:17.426Z,59.18
2019-01-19T05:55:49.018Z,59.21
2019-01-19T05:56:20.624Z,59.17
2019-01-19T05:56:52.227Z,59.11
2019-01-19T05:57:23.821Z,59.15
2019-01-19T05:57:55.429Z,59.07
2019-01-19T05:58:27.022Z,58.99
2019-01-19T05:58:58.632Z,58.90
2019-01-19T05:59:30.339Z,58.98
2019-01-19T06:00:01.903Z,59.00
2019-01-19T06:00:33.538Z,58.92
2019-01-19T06:01:05.129Z,58.79
2019-01-19T06:01:36.722Z,58.74
2019-01-19T06:02:08.309Z,58.57
2019-01-19T06:02:39.921Z,58.40
2019-01-19T06:03:11.518Z,58.32
2019-01-19T06:03:43.109Z,58.11
2019-01-19T06:04:14.712Z,57.99
2019-01-19T06:04:46.321Z,57.85
2019-01-19T06:05:17.908Z,57.71
2019-01-19T06:05:49.517Z,57.68
2019-01-19T06:06:21.125Z,57.54
2019-01-19T06:06:52.722Z,57.45
2019-01-19T06:07:24.314Z,57.31
2019-01-19T06:07:55.911Z,57.07
2019-01-19T06:08:27.523Z,57.16
2019-01-19T06:08:59.104Z,57.04
2019-01-19T06:09:30.704Z,56.82
2019-01-19T06:10:02.312Z,56.78
2019-01-19T06:10:33.906Z,56.81
2019-01-19T06:11:05.497Z,56.45
2019-01-19T06:11:37.101Z,56.35
2019-01-19T06:12:08.684Z,56.36
2019-01-19T06:12:40.277Z,56.31
2019-01-19T06:13:11.871Z,56.12
2019-01-19T06:13:43.467Z,56.05
2019-01-19T06:14:15.067Z,55.89
2019-01-19T06:14:46.676Z,55.84
2019-01-19T06:15:18.319Z,55.69
2019-01-19T06:15:49.928Z,55.63
2019-01-19T06:16:21.541Z,55.68
2019-01-19T06:16:53.156Z,55.42
2019-01-19T06:17:24.749Z,55.28
2019-01-19T06:17:56.393Z,55.40
2019-01-19T06:18:27.991Z,55.46
2019-01-19T06:18:59.651Z,55.20
2019-01-19T06:19:31.253Z,55.28
2019-01-19T06:20:02.853Z,55.25
2019-01-19T06:20:34.435Z,55.21
2019-01-19T06:21:06.048Z,55.35
2019-01-19T06:21:37.645Z,55.43
2019-01-19T06:22:09.238Z,55.38
2019-01-19T06:22:40.844Z,55.39
2019-01-19T06:23:12.450Z,55.38
2019-01-19T06:23:44.044Z,55.68
2019-01-19T06:24:15.638Z,55.53
2019-01-19T06:24:47.244Z,55.42
2019-01-19T06:25:18.865Z,55.52
2019-01-19T06:25:50.527Z,55.38
2019-01-19T06:26:22.131Z,55.57
2019-01-19T06:26:53.739Z,55.59
2019-01-19T06:27:25.338Z,55.67
2019-01-19T06:27:56.934Z,55.94
2019-01-19T06:28:28.526Z,55.97
2019-01-19T06:29:00.118Z,55.75
2019-01-19T06:29:31.753Z,55.75
2019-01-19T06:30:03.359Z,55.84
2019-01-19T06:30:34.944Z,56.05
2019-01-19T06:31:07.171Z,56.36
2019-01-19T06:31:38.235Z,56.37
2019-01-19T06:32:09.831Z,56.21
2019-01-19T06:32:41.422Z,56.53
2019-01-19T06:33:13.032Z,56.38
2019-01-19T06:33:44.625Z,56.40
2019-01-19T06:34:16.227Z,56.20
2019-01-19T06:34:47.823Z,56.52
2019-01-19T06:35:19.449Z,56.53
2019-01-19T06:35:51.046Z,56.22
2019-01-19T06:36:22.713Z,56.41
2019-01-19T06:36:55.161Z,56.30
2019-01-19T06:37:25.946Z,56.29
2019-01-19T06:37:57.558Z,56.28
2019-01-19T06:38:29.178Z,56.14
2019-01-19T06:39:00.791Z,56.17
2019-01-19T06:39:32.390Z,56.10
2019-01-19T06:40:04.036Z,56.11
2019-01-19T06:40:35.656Z,56.17
2019-01-19T06:41:07.271Z,56.18
2019-01-19T06:41:38.856Z,56.19
2019-01-19T06:42:10.463Z,56.26
2019-01-19T06:42:42.072Z,56.05
2019-01-19T06:43:13.684Z,56.14
2019-01-19T06:43:45.289Z,56.20
2019-01-19T06:44:16.883Z,56.13
2019-01-19T06:44:48.484Z,56.46
2019-01-19T06:45:20.122Z,56.60
2019-01-19T06:45:51.750Z,56.89
2019-01-19T06:46:23.362Z,56.83
2019-01-19T06:46:54.962Z,56.84
2019-01-19T06:47:26.553Z,56.76
2019-01-19T06:47:58.145Z,56.88
2019-01-19T06:48:29.741Z,58.24
2019-01-19T06:49:01.352Z,57.52
2019-01-19T06:49:32.941Z,57.96
2019-01-19T06:50:04.548Z,57.78
2019-01-19T06:50:36.143Z,58.01
2019-01-19T06:51:07.752Z,58.04
2019-01-19T06:51:39.356Z,57.92
2019-01-19T06:52:11.097Z,58.03
2019-01-19T06:52:42.618Z,58.19
2019-01-19T06:53:14.210Z,58.11
2019-01-19T06:53:45.810Z,58.22
2019-01-19T06:54:17.429Z,58.40
2019-01-19T06:54:49.029Z,58.19
2019-01-19T06:55:20.631Z,58.33
2019-01-19T06:55:52.239Z,58.38
2019-01-19T06:56:23.834Z,58.51
2019-01-19T06:56:55.440Z,58.53
2019-01-19T06:57:27.051Z,58.45
2019-01-19T06:57:58.657Z,58.51
2019-01-19T06:58:31.250Z,58.52
2019-01-19T06:59:01.902Z,58.57
2019-01-19T06:59:33.588Z,58.68
2019-01-19T07:00:05.183Z,58.77
2019-01-19T07:00:36.802Z,58.63
2019-01-19T07:01:08.434Z,58.65
2019-01-19T07:01:40.030Z,58.71
2019-01-19T07:02:11.636Z,58.76
2019-01-19T07:02:43.302Z,58.70
2019-01-19T07:03:14.886Z,58.78
2019-01-19T07:03:46.468Z,58.84
2019-01-19T07:04:18.072Z,58.87
2019-01-19T07:04:49.679Z,58.91
2019-01-19T07:05:21.292Z,59.00
2019-01-19T07:05:52.926Z,59.06
2019-01-19T07:06:24.535Z,59.16
2019-01-19T07:07:02.524Z,59.23
2019-01-19T07:07:27.809Z,59.15
2019-01-19T07:07:59.401Z,59.28
2019-01-19T07:08:31.004Z,59.38
2019-01-19T07:09:02.597Z,59.45
2019-01-19T07:09:34.189Z,59.41
2019-01-19T07:10:05.782Z,59.44
2019-01-19T07:10:37.378Z,59.32
2019-01-19T07:11:09.450Z,59.40
2019-01-19T07:11:41.058Z,59.43
2019-01-19T07:12:12.654Z,59.43
2019-01-19T07:12:44.259Z,59.42
2019-01-19T07:13:15.854Z,59.45
2019-01-19T07:13:47.459Z,59.54
2019-01-19T07:14:19.054Z,59.45
2019-01-19T07:14:50.649Z,59.56
2019-01-19T07:15:22.308Z,59.56
2019-01-19T07:15:53.921Z,59.65
2019-01-19T07:16:25.548Z,59.58
2019-01-19T07:16:57.169Z,59.70
2019-01-19T07:17:28.761Z,59.67
2019-01-19T07:18:00.422Z,59.65
2019-01-19T07:18:32.017Z,59.67
2019-01-19T07:19:03.610Z,59.72
2019-01-19T07:19:35.206Z,59.82
2019-01-19T07:20:06.812Z,59.78
2019-01-19T07:20:38.410Z,59.83
2019-01-19T07:21:09.991Z,59.80
2019-01-19T07:21:41.618Z,59.83
2019-01-19T07:22:13.228Z,59.81
2019-01-19T07:22:44.905Z,59.79
2019-01-19T07:23:16.515Z,59.81
2019-01-19T07:23:48.110Z,59.91
2019-01-19T07:24:19.711Z,59.89
2019-01-19T07:24:51.306Z,59.91
2019-01-19T07:25:22.903Z,59.92
2019-01-19T07:25:54.545Z,59.92
2019-01-19T07:26:26.147Z,59.87
2019-01-19T07:26:57.746Z,59.87
2019-01-19T07:27:29.351Z,59.87
2019-01-19T07:28:01.013Z,59.88
2019-01-19T07:28:32.610Z,59.88
2019-01-19T07:29:04.206Z,59.90
2019-01-19T07:29:35.803Z,59.81
2019-01-19T07:30:07.401Z,59.78
2019-01-19T07:30:39.013Z,59.78
2019-01-19T07:31:10.634Z,59.84
2019-01-19T07:31:42.230Z,59.72
2019-01-19T07:32:13.819Z,59.61
2019-01-19T07:32:45.395Z,59.58
2019-01-19T07:33:16.996Z,59.64
2019-01-19T07:33:48.589Z,59.66
2019-01-19T07:34:20.190Z,59.54
2019-01-19T07:34:51.795Z,59.27